Time;durP1;ratioP1;P1;durP2;ratioP2;P2;SDS_P1;SDS_P2;PMS_P1;PMS_P2;Temp;Humidity;BMP_temperature;BMP_pressure;BME280_temperature;BME280_humidity;BME280_pressure;Samples;Min_cycle;Max_cycle;Signal;HPM_P1;HPM_P2
2023/05/25 00:02:45;;;;;;;6.10;3.80;;;;;;;20.09;76.85;99207.05;80388;1294;3011702;-63
2023/05/25 00:05:13;;;;;;;10.40;4.40;;;;;;;19.97;77.81;99210.48;79276;1292;3013539;-63
2023/05/25 00:07:39;;;;;;;7.10;4.90;;;;;;;19.80;78.57;99213.11;79347;1295;3011625;-64
2023/05/25 00:10:08;;;;;;;11.90;5.50;;;;;;;19.57;79.47;99212.77;78134;1295;3052196;-62
2023/05/25 00:12:35;;;;;;;8.10;5.30;;;;;;;19.37;80.49;99211.90;79389;1292;3013770;-61
2023/05/25 00:15:05;;;;;;;7.90;3.70;;;;;;;19.21;81.47;99220.25;77050;1292;3013329;-63
2023/05/25 00:17:32;;;;;;;9.10;4.20;;;;;;;19.60;81.00;99219.46;79742;1289;3014586;-62
2023/05/25 00:20:06;;;;;;;8.80;4.50;;;;;;;19.94;79.85;99224.61;79624;1289;3013278;-63
2023/05/25 00:22:37;;;;;;;;;;;;;;;19.98;79.56;99228.14;78439;1295;3049947;-62
2023/05/25 00:25:05;;;;;;;7.50;4.70;;;;;;;19.77;80.02;99225.82;79579;1294;3013326;-62
2023/05/25 00:27:33;;;;;;;12.90;5.30;;;;;;;19.54;80.82;99221.23;78517;1292;3026374;-62
2023/05/25 00:29:59;;;;;;;9.00;6.20;;;;;;;19.31;81.83;99223.21;79613;1292;3013390;-62
2023/05/25 00:32:27;;;;;;;9.60;4.10;;;;;;;19.09;82.95;99218.61;79520;1289;3013264;-62
2023/05/25 00:34:54;;;;;;;7.30;5.10;;;;;;;19.46;81.67;99213.55;78422;1294;3026363;-61
2023/05/25 00:37:21;;;;;;;10.00;5.90;;;;;;;19.88;79.66;99212.29;79646;1289;3013167;-63
2023/05/25 00:39:48;;;;;;;8.90;6.50;;;;;;;19.87;79.19;99206.46;79659;1292;3011631;-60
2023/05/25 00:42:15;;;;;;;11.30;7.70;;;;;;;19.72;79.48;99200.42;78398;1295;3025825;-62
2023/05/25 00:44:42;;;;;;;11.30;7.60;;;;;;;19.48;80.52;99204.38;79753;1292;3013029;-62
2023/05/25 00:47:10;;;;;;;12.60;8.00;;;;;;;19.28;81.70;99197.55;79621;1289;3013045;-62
2023/05/25 00:49:40;;;;;;;10.10;4.20;;;;;;;19.13;82.21;99199.48;78479;1294;3049637;-63
2023/05/25 00:52:06;;;;;;;6.50;3.80;;;;;;;19.53;80.51;99198.61;79609;1290;3013310;-61
2023/05/25 00:54:36;;;;;;;9.00;4.70;;;;;;;19.96;78.43;99194.96;79553;1289;3011712;-62
2023/05/25 00:57:06;;;;;;;8.30;5.10;;;;;;;19.93;78.07;99195.55;78418;1295;3054580;-62
2023/05/25 00:59:40;;;;;;;12.00;5.90;;;;;;;19.78;78.06;99197.10;79708;1294;3013299;-63
2023/05/25 01:02:14;;;;;;;9.70;5.90;;;;;;;19.59;78.99;99192.49;78399;1289;3050212;-63
2023/05/25 01:04:54;;;;;;;11.80;5.90;;;;;;;19.37;79.69;99196.85;79111;1289;3011833;-62
2023/05/25 01:07:30;;;;;;;8.70;5.90;;;;;;;19.15;80.71;99196.86;78434;1294;3057440;-63
2023/05/25 01:10:00;;;;;;;5.70;3.50;;;;;;;19.00;81.75;99195.73;79086;1289;3013085;-62
2023/05/25 01:12:31;;;;;;;7.40;4.30;;;;;;;19.52;80.11;99193.72;79725;1289;3013597;-64
2023/05/25 01:14:59;;;;;;;8.30;4.80;;;;;;;19.98;77.98;99198.26;78307;1295;3054157;-62
2023/05/25 01:17:27;;;;;;;8.60;5.90;;;;;;;19.93;77.48;99201.12;79609;1294;3013559;-62
2023/05/25 01:19:57;;;;;;;10.20;6.20;;;;;;;19.75;77.85;99202.41;79742;1289;3013650;-63
2023/05/25 01:22:37;;;;;;;9.90;5.90;;;;;;;19.54;78.66;99202.36;78359;1289;3069407;-63
2023/05/25 01:25:08;;;;;;;9.10;5.50;;;;;;;19.27;80.01;99206.19;78402;1289;3050509;-60
2023/05/25 01:27:56;;;;;;;9.10;5.30;;;;;;;19.08;80.67;99203.00;79601;1290;3013378;-62
2023/05/25 01:30:25;;;;;;;6.20;3.40;;;;;;;18.93;82.10;99202.64;78303;1295;3049477;-63
2023/05/25 01:32:52;;;;;;;8.40;3.70;;;;;;;19.43;80.56;99203.15;79789;1289;3012879;-63
2023/05/25 01:35:19;;;;;;;8.10;4.10;;;;;;;19.79;79.09;99203.93;79652;1294;3013495;-64
2023/05/25 01:37:48;;;;;;;6.50;3.70;;;;;;;19.75;78.82;99207.02;78466;1294;3053375;-62
2023/05/25 01:40:15;;;;;;;9.00;4.70;;;;;;;19.50;79.30;99206.49;79627;1290;3014305;-63
2023/05/25 01:42:42;;;;;;;8.30;4.10;;;;;;;19.29;80.01;99204.34;79703;1289;3012204;-62
2023/05/25 01:45:10;;;;;;;7.50;4.90;;;;;;;19.07;80.62;99203.73;78420;1289;3050112;-62
2023/05/25 01:47:44;;;;;;;8.20;4.60;;;;;;;18.82;81.51;99199.94;79636;1294;3013677;-62
2023/05/25 01:50:53;;;;;;;7.30;3.10;;;;;;;18.66;82.24;99195.19;78464;1295;3053101;-61
2023/05/25 01:53:23;;;;;;;12.00;3.80;;;;;;;19.26;80.29;99194.91;78375;1295;3052025;-61
2023/05/25 01:55:56;;;;;;;7.60;3.40;;;;;;;19.57;78.71;99195.02;79668;1289;3013563;-62
2023/05/25 01:58:25;;;;;;;7.30;3.80;;;;;;;19.50;78.57;99194.48;78517;1294;3049648;-64
2023/05/25 02:00:52;;;;;;;8.90;4.20;;;;;;;19.29;79.26;99190.05;79724;1289;3013001;-62
2023/05/25 02:03:21;;;;;;;9.60;4.30;;;;;;;19.06;79.95;99192.02;79650;1294;3011511;-61
2023/05/25 02:05:49;;;;;;;8.50;4.60;;;;;;;18.84;80.84;99192.64;78520;1294;3050020;-62
2023/05/25 02:08:16;;;;;;;7.60;4.50;;;;;;;18.67;81.42;99194.58;79507;1297;3013807;-63
2023/05/25 02:10:43;;;;;;;6.60;2.60;;;;;;;18.54;82.44;99205.75;79517;1294;3013991;-63
2023/05/25 02:13:11;;;;;;;6.70;3.10;;;;;;;18.98;81.06;99197.05;78407;1292;3028690;-62
2023/05/25 02:15:38;;;;;;;6.50;3.20;;;;;;;19.46;79.09;99200.84;79658;1291;3013510;-62
2023/05/25 02:18:05;;;;;;;7.60;3.40;;;;;;;19.56;78.73;99198.84;79623;1292;3012866;-62
2023/05/25 02:20:35;;;;;;;11.10;5.00;;;;;;;19.38;79.15;99200.77;78452;1294;3049511;-62
2023/05/25 02:23:02;;;;;;;8.30;4.90;;;;;;;19.13;80.60;99205.35;79681;1294;3012954;-62
2023/05/25 02:25:29;;;;;;;12.20;5.40;;;;;;;18.92;81.29;99209.66;79619;1292;3011944;-63
2023/05/25 02:27:57;;;;;;;11.20;5.00;;;;;;;18.70;82.46;99212.55;78381;1295;3051490;-62
2023/05/25 02:30:24;;;;;;;8.40;2.80;;;;;;;18.54;83.60;99215.86;79585;1291;3013532;-60
2023/05/25 02:32:56;;;;;;;6.10;3.30;;;;;;;19.02;81.91;99208.46;79071;1292;3013590;-62
2023/05/25 02:35:22;;;;;;;7.60;4.00;;;;;;;19.53;79.13;99207.98;79669;1295;3018516;-62
2023/05/25 02:37:49;;;;;;;9.10;4.10;;;;;;;19.52;78.29;99203.65;79610;1294;3013080;-64
2023/05/25 02:40:17;;;;;;;10.40;4.80;;;;;;;19.37;78.72;99201.48;78587;1294;3028937;-60
2023/05/25 02:42:43;;;;;;;8.30;4.50;;;;;;;19.19;79.08;99204.71;79549;1294;3018358;-63
2023/05/25 02:45:10;;;;;;;8.10;4.50;;;;;;;19.04;79.43;99204.40;79609;1292;3013113;-63
2023/05/25 02:47:38;;;;;;;9.50;4.50;;;;;;;18.89;79.90;99205.55;78420;1294;3026564;-62
2023/05/25 02:50:06;;;;;;;7.20;3.50;;;;;;;18.76;80.27;99209.39;79654;1295;3012916;-62
2023/05/25 02:52:38;;;;;;;4.30;3.30;;;;;;;19.22;78.57;99212.03;79062;1294;3011729;-62
2023/05/25 02:55:06;;;;;;;5.80;3.00;;;;;;;19.70;76.87;99213.77;79741;1292;3013521;-62
2023/05/25 02:57:37;;;;;;;7.30;3.30;;;;;;;19.72;76.08;99214.80;78502;1291;3069395;-62
2023/05/25 03:00:06;;;;;;;6.80;4.00;;;;;;;19.56;76.02;99214.29;79931;1292;3012898;-64
2023/05/25 03:02:36;;;;;;;7.80;3.80;;;;;;;19.36;76.54;99215.79;78642;1291;3048983;-62
2023/05/25 03:05:03;;;;;;;8.90;4.50;;;;;;;19.18;76.68;99221.45;79600;1292;3013026;-63
2023/05/25 03:07:30;;;;;;;9.10;4.30;;;;;;;19.01;77.81;99225.41;79870;1293;3011831;-61
2023/05/25 03:09:59;;;;;;;10.10;4.90;;;;;;;18.80;78.84;99227.66;78500;1294;3054660;-59
2023/05/25 03:12:26;;;;;;;6.30;2.60;;;;;;;18.76;79.32;99225.61;79737;1290;3018720;-61
2023/05/25 03:14:52;;;;;;;6.90;3.10;;;;;;;19.31;77.96;99223.74;79609;1294;3011646;-60
2023/05/25 03:17:21;;;;;;;5.00;2.90;;;;;;;19.85;75.69;99226.64;78453;1294;3025865;-62
2023/05/25 03:19:47;;;;;;;5.90;3.30;;;;;;;19.84;74.92;99230.28;79722;1291;3013948;-61
2023/05/25 03:22:15;;;;;;;9.20;3.70;;;;;;;19.71;74.98;99230.70;79756;1291;3013582;-64
2023/05/25 03:24:43;;;;;;;7.30;3.90;;;;;;;19.56;75.31;99230.64;78610;1294;3026558;-61
2023/05/25 03:27:09;;;;;;;6.90;4.30;;;;;;;19.38;75.58;99233.48;79731;1294;3012831;-60
2023/05/25 03:29:37;;;;;;;6.80;3.20;;;;;;;19.22;76.23;99233.20;79512;1289;3012750;-62
2023/05/25 03:32:05;;;;;;;9.60;3.80;;;;;;;19.08;76.38;99234.36;78364;1294;3026651;-61
2023/05/25 03:34:34;;;;;;;7.70;3.00;;;;;;;18.96;76.78;99232.33;79627;1297;3013448;-62
2023/05/25 03:37:03;;;;;;;4.70;2.70;;;;;;;19.40;75.44;99233.77;79107;1292;3011551;-62
2023/05/25 03:39:31;;;;;;;6.60;2.70;;;;;;;19.86;73.18;99237.84;79612;1293;3011930;-61
2023/05/25 03:41:58;;;;;;;8.80;3.20;;;;;;;20.00;72.79;99236.67;79790;1291;3012177;-61
2023/05/25 03:44:26;;;;;;;5.50;3.40;;;;;;;19.89;72.66;99236.89;78271;1297;3050854;-58
2023/05/25 03:46:53;;;;;;;8.60;3.80;;;;;;;19.72;72.94;99234.10;79559;1292;3014871;-58
2023/05/25 03:49:20;;;;;;;9.80;4.10;;;;;;;19.53;73.67;99233.41;79550;1292;3012824;-59
2023/05/25 03:51:48;;;;;;;10.40;3.90;;;;;;;19.40;74.29;99235.23;78396;1296;3050081;-60
2023/05/25 03:54:16;;;;;;;9.00;4.30;;;;;;;19.22;75.20;99231.20;79708;1294;3014907;-59
2023/05/25 03:56:42;;;;;;;7.90;4.10;;;;;;;19.06;76.01;99229.58;79772;1292;3011880;-60
2023/05/25 03:59:11;;;;;;;7.80;2.50;;;;;;;19.02;76.51;99226.78;78407;1291;3051647;-60
2023/05/25 04:01:38;;;;;;;6.40;3.30;;;;;;;19.53;75.66;99227.20;79705;1291;3013165;-59
2023/05/25 04:04:05;;;;;;;8.40;3.30;;;;;;;20.10;73.89;99229.39;79636;1294;3013333;-61
2023/05/25 04:06:36;;;;;;;8.40;4.10;;;;;;;20.15;73.16;99227.98;78304;1297;3049255;-60
2023/05/25 04:09:03;;;;;;;8.30;4.30;;;;;;;19.96;73.65;99222.23;79631;1292;3012964;-59
2023/05/25 04:11:33;;;;;;;9.30;4.80;;;;;;;19.72;74.21;99221.55;78371;1294;3053565;-59
2023/05/25 04:14:00;;;;;;;10.80;4.70;;;;;;;19.55;74.88;99221.61;79682;1294;3013340;-59
2023/05/25 04:16:32;;;;;;;10.80;5.00;;;;;;;19.41;75.78;99222.15;79080;1292;3011681;-58
2023/05/25 04:18:59;;;;;;;9.40;4.40;;;;;;;19.37;76.24;99226.82;79701;1292;3019163;-60
2023/05/25 04:21:26;;;;;;;4.70;3.10;;;;;;;19.32;76.80;99230.05;79583;1291;3011565;-59
2023/05/25 04:23:55;;;;;;;5.80;3.70;;;;;;;19.81;75.76;99231.27;78395;1295;3049821;-60
2023/05/25 04:26:25;;;;;;;8.60;4.70;;;;;;;20.31;74.14;99233.56;79675;1294;3013560;-59
2023/05/25 04:28:56;;;;;;;13.70;4.20;;;;;;;20.47;73.32;99237.59;78345;1292;3067714;-60
2023/05/25 04:31:44;;;;;;;8.60;4.80;;;;;;;20.37;73.53;99239.59;78469;1294;3052132;-59
2023/05/25 04:34:13;;;;;;;10.60;5.00;;;;;;;20.30;73.75;99243.80;79538;1292;3013288;-59
2023/05/25 04:36:52;;;;;;;8.60;4.80;;;;;;;20.25;73.49;99246.81;78329;1294;3049571;-60
2023/05/25 04:39:19;;;;;;;13.20;5.20;;;;;;;20.17;73.56;99247.79;79661;1292;3015868;-60
2023/05/25 04:41:53;;;;;;;13.00;5.30;;;;;;;20.06;73.98;99253.94;78382;1294;3052475;-60
2023/05/25 04:44:19;;;;;;;13.80;5.70;;;;;;;19.99;74.33;99252.96;79612;1294;3013187;-59
2023/05/25 04:46:48;;;;;;;8.50;3.50;;;;;;;19.97;74.94;99251.73;79571;1291;3013308;-58
2023/05/25 04:49:22;;;;;;;8.20;4.30;;;;;;;20.56;73.10;99252.81;78370;1294;3057809;-59
2023/05/25 04:51:48;;;;;;;9.80;4.00;;;;;;;21.13;70.91;99252.35;79652;1292;3013216;-59
2023/05/25 04:54:15;;;;;;;12.20;6.20;;;;;;;21.20;70.25;99252.77;79637;1294;3012836;-58
2023/05/25 04:56:43;;;;;;;10.70;5.30;;;;;;;21.23;70.00;99250.19;78371;1294;3028568;-60
2023/05/25 04:59:10;;;;;;;18.50;7.10;;;;;;;21.15;69.97;99252.13;79548;1296;3013448;-61
2023/05/25 05:01:39;;;;;;;11.30;6.40;;;;;;;21.09;70.15;99255.44;79573;1294;3011582;-60
2023/05/25 05:04:08;;;;;;;12.80;7.10;;;;;;;20.92;70.74;99261.15;78449;1294;3056056;-59
2023/05/25 05:06:36;;;;;;;14.90;7.10;;;;;;;20.83;70.88;99260.52;79597;1292;3015841;-60
2023/05/25 05:09:06;;;;;;;13.40;7.00;;;;;;;20.83;70.70;99259.34;79070;1294;3013697;-59
2023/05/25 05:11:33;;;;;;;12.60;6.30;;;;;;;20.75;70.80;99258.73;79619;1297;3013347;-61
2023/05/25 05:14:00;;;;;;;18.80;6.80;;;;;;;20.72;70.91;99258.13;79535;1297;3011700;-61
2023/05/25 05:16:33;;;;;;;17.30;7.50;;;;;;;20.73;70.84;99260.13;78429;1294;3068850;-59
2023/05/25 05:19:00;;;;;;;11.90;6.30;;;;;;;20.73;70.73;99267.23;79627;1294;3013465;-61
2023/05/25 05:21:31;;;;;;;11.80;4.50;;;;;;;20.75;70.92;99273.50;79142;1290;3011677;-63
2023/05/25 05:23:57;;;;;;;9.90;4.10;;;;;;;21.31;69.53;99274.36;79746;1292;3012963;-59
2023/05/25 05:26:24;;;;;;;11.00;4.80;;;;;;;21.87;67.92;99271.23;79593;1290;3013617;-58
2023/05/25 05:28:52;;;;;;;13.00;4.40;;;;;;;21.93;67.31;99273.38;78539;1291;3052737;-60
2023/05/25 05:31:20;;;;;;;12.60;4.40;;;;;;;21.79;67.90;99277.19;79886;1293;3013358;-59
2023/05/25 05:33:46;;;;;;;10.00;4.50;;;;;;;21.62;68.86;99278.75;79722;1294;3011468;-60
2023/05/25 05:36:16;;;;;;;11.90;5.40;;;;;;;21.47;69.77;99281.63;78387;1292;3056146;-60
2023/05/25 05:38:46;;;;;;;11.00;4.50;;;;;;;21.23;70.90;99286.69;79666;1294;3011588;-58
2023/05/25 05:41:15;;;;;;;11.30;4.90;;;;;;;21.10;71.40;99288.91;79086;1294;3013768;-59
2023/05/25 05:43:47;;;;;;;8.30;4.80;;;;;;;20.94;71.56;99289.10;79650;1292;3013034;-60
2023/05/25 05:46:16;;;;;;;12.20;5.40;;;;;;;20.79;72.03;99286.52;78474;1294;3052568;-59
2023/05/25 05:48:42;;;;;;;9.50;4.40;;;;;;;20.81;71.71;99291.00;79575;1294;3013501;-60
2023/05/25 05:51:10;;;;;;;8.30;3.80;;;;;;;20.76;71.12;99291.10;79701;1290;3011598;-59
2023/05/25 05:53:38;;;;;;;6.70;4.10;;;;;;;20.80;70.47;99290.15;78397;1294;3055715;-60
2023/05/25 05:56:17;;;;;;;10.80;4.30;;;;;;;20.80;70.26;99290.73;79705;1292;3013406;-61
2023/05/25 05:58:48;;;;;;;8.80;4.50;;;;;;;20.90;69.85;99290.02;78278;1294;3050513;-59
2023/05/25 06:01:18;;;;;;;12.80;5.50;;;;;;;20.89;69.42;99290.13;79639;1293;3013153;-59
2023/05/25 06:03:46;;;;;;;6.90;5.00;;;;;;;20.86;69.40;99291.89;78406;1291;3053059;-58
2023/05/25 06:06:14;;;;;;;12.80;5.40;;;;;;;20.95;69.53;99287.49;79625;1291;3014849;-60
2023/05/25 06:08:41;;;;;;;8.70;3.70;;;;;;;21.07;69.98;99289.85;79541;1291;3011694;-59
2023/05/25 06:11:09;;;;;;;9.50;4.50;;;;;;;21.76;67.66;99286.51;78330;1296;3048695;-61
2023/05/25 06:13:36;;;;;;;12.80;5.50;;;;;;;22.46;64.72;99290.70;79560;1295;3013771;-60
2023/05/25 06:16:03;;;;;;;10.90;5.60;;;;;;;22.67;64.23;99286.12;79657;1294;3013273;-59
2023/05/25 06:18:31;;;;;;;10.30;4.90;;;;;;;22.63;64.35;99285.70;78417;1294;3053288;-58
2023/05/25 06:21:00;;;;;;;11.20;4.90;;;;;;;22.53;64.71;99283.65;79618;1291;3013916;-59
2023/05/25 06:23:27;;;;;;;12.40;4.80;;;;;;;22.59;64.84;99286.61;79841;1291;3011886;-60
2023/05/25 06:25:55;;;;;;;9.10;4.20;;;;;;;22.59;64.84;99285.32;78425;1291;3049805;-62
2023/05/25 06:28:21;;;;;;;8.10;4.60;;;;;;;22.50;64.62;99288.40;79613;1292;3012883;-61
2023/05/25 06:30:49;;;;;;;7.80;4.30;;;;;;;22.46;64.47;99286.55;79612;1292;3011574;-60
2023/05/25 06:33:17;;;;;;;12.90;4.80;;;;;;;22.47;64.53;99289.00;78464;1294;3052654;-61
2023/05/25 06:35:45;;;;;;;10.10;4.20;;;;;;;22.43;63.52;99290.04;79553;1292;3013177;-60
2023/05/25 06:38:12;;;;;;;5.60;3.50;;;;;;;22.41;63.51;99294.61;79976;1291;3011589;-60
2023/05/25 06:40:40;;;;;;;5.00;3.00;;;;;;;22.36;63.03;99296.42;78560;1294;3049614;-59
2023/05/25 06:43:07;;;;;;;7.60;3.20;;;;;;;22.38;62.09;99298.36;79872;1291;3013612;-61
2023/05/25 06:45:58;;;;;;;8.00;3.20;;;;;;;22.29;61.98;99296.60;78228;1295;3052474;-58
2023/05/25 06:48:25;;;;;;;6.60;2.70;;;;;;;22.28;61.86;99298.48;79593;1294;3013425;-60
2023/05/25 06:50:51;;;;;;;6.40;2.60;;;;;;;22.29;61.49;99299.88;79948;1291;3011749;-60
2023/05/25 06:53:19;;;;;;;7.90;2.80;;;;;;;22.33;60.72;99298.91;78493;1292;3029087;-60
2023/05/25 06:55:46;;;;;;;7.30;3.10;;;;;;;22.20;60.06;99299.10;79671;1292;3018293;-61
2023/05/25 06:58:13;;;;;;;10.10;2.70;;;;;;;22.26;59.92;99299.69;79595;1291;3013237;-62
2023/05/25 07:00:41;;;;;;;8.20;2.90;;;;;;;22.26;59.60;99300.67;78493;1292;3028717;-61
2023/05/25 07:03:07;;;;;;;8.60;3.20;;;;;;;22.20;60.05;99305.13;79708;1294;3013768;-59
2023/05/25 07:05:34;;;;;;;9.00;3.80;;;;;;;22.17;61.02;99301.89;79689;1290;3011610;-61
2023/05/25 07:08:02;;;;;;;6.50;2.90;;;;;;;22.16;61.46;99301.83;78420;1292;3028586;-60
2023/05/25 07:10:29;;;;;;;10.10;3.60;;;;;;;22.24;61.47;99299.52;79649;1291;3011633;-60
2023/05/25 07:12:55;;;;;;;8.00;3.30;;;;;;;22.29;61.86;99300.02;79608;1292;3011591;-61
2023/05/25 07:15:23;;;;;;;9.50;3.60;;;;;;;22.45;62.00;99306.17;78564;1294;3025655;-59
2023/05/25 07:17:50;;;;;;;8.20;3.70;;;;;;;22.49;61.52;99308.55;79580;1292;3013815;-60
2023/05/25 07:20:16;;;;;;;8.40;3.90;;;;;;;22.56;62.06;99307.19;79530;1295;3011673;-60
2023/05/25 07:22:45;;;;;;;9.90;3.80;;;;;;;22.70;61.68;99314.17;78421;1291;3028242;-61
2023/05/25 07:25:13;;;;;;;9.80;3.00;;;;;;;22.75;59.60;99316.13;79732;1292;3015527;-61
2023/05/25 07:27:41;;;;;;;13.90;3.30;;;;;;;22.82;59.00;99313.95;79652;1292;3013096;-61
2023/05/25 07:30:10;;;;;;;7.10;3.30;;;;;;;22.86;59.08;99312.35;78480;1294;3054012;-59
2023/05/25 07:32:37;;;;;;;7.90;3.20;;;;;;;22.86;59.87;99315.22;79581;1294;3013437;-60
2023/05/25 07:35:04;;;;;;;9.10;3.50;;;;;;;22.94;59.48;99315.54;79614;1291;3013407;-60
2023/05/25 07:37:40;;;;;;;8.80;3.70;;;;;;;22.99;58.98;99313.67;78501;1294;3056057;-62
2023/05/25 07:40:13;;;;;;;13.90;3.60;;;;;;;23.10;59.78;99319.53;78321;1297;3049442;-61
2023/05/25 07:42:39;;;;;;;5.90;2.90;;;;;;;23.11;59.21;99318.59;79727;1291;3019345;-60
2023/05/25 07:45:06;;;;;;;6.90;3.20;;;;;;;23.12;58.43;99318.54;79557;1294;3013307;-60
2023/05/25 07:47:35;;;;;;;7.20;2.70;;;;;;;23.18;57.64;99320.10;78494;1294;3052377;-61
2023/05/25 07:50:02;;;;;;;7.00;2.90;;;;;;;23.29;56.53;99319.02;79788;1292;3018719;-61
2023/05/25 07:52:28;;;;;;;9.30;3.10;;;;;;;23.36;56.78;99321.45;79730;1292;3012011;-61
2023/05/25 07:54:56;;;;;;;7.80;3.40;;;;;;;23.53;57.98;99320.13;78429;1291;3028726;-60
2023/05/25 07:57:24;;;;;;;8.30;3.90;;;;;;;23.61;58.72;99316.52;79839;1291;3013441;-62
2023/05/25 07:59:50;;;;;;;7.90;3.70;;;;;;;23.63;59.10;99314.41;79510;1294;3011829;-62
2023/05/25 08:02:18;;;;;;;8.00;3.90;;;;;;;23.74;59.11;99313.85;78713;1291;3053212;-64
2023/05/25 08:04:45;;;;;;;7.20;3.20;;;;;;;23.76;59.04;99310.48;79603;1292;3012785;-61
2023/05/25 08:07:11;;;;;;;9.20;4.00;;;;;;;23.79;58.39;99304.90;79628;1295;3011619;-60
2023/05/25 08:09:39;;;;;;;9.90;3.70;;;;;;;23.86;58.86;99303.60;78464;1294;3028371;-61
2023/05/25 08:12:06;;;;;;;10.90;4.20;;;;;;;23.85;58.01;99303.58;79699;1290;3012883;-59
2023/05/25 08:14:32;;;;;;;8.20;3.70;;;;;;;23.87;57.29;99303.20;79740;1295;3011865;-61
2023/05/25 08:17:01;;;;;;;10.30;3.90;;;;;;;23.82;57.61;99296.73;78376;1292;3026073;-61
2023/05/25 08:19:30;;;;;;;10.80;4.60;;;;;;;23.93;58.15;99295.61;79674;1291;3013663;-61
2023/05/25 08:21:59;;;;;;;10.80;3.70;;;;;;;23.91;57.57;99291.60;79154;1292;3011735;-61
2023/05/25 08:24:25;;;;;;;11.50;3.90;;;;;;;23.92;57.58;99286.98;79631;1294;3013358;-61
2023/05/25 08:26:52;;;;;;;6.80;3.70;;;;;;;24.08;57.56;99287.19;79621;1294;3011524;-61
2023/05/25 08:29:20;;;;;;;7.70;3.50;;;;;;;24.20;56.65;99283.64;78439;1295;3028910;-61
2023/05/25 08:31:48;;;;;;;7.70;3.10;;;;;;;24.27;56.02;99277.98;79967;1292;3012661;-62
2023/05/25 08:34:15;;;;;;;11.40;3.90;;;;;;;24.37;55.80;99276.58;79617;1291;3011871;-61
2023/05/25 08:36:43;;;;;;;9.70;4.10;;;;;;;24.43;55.77;99273.85;78447;1292;3051937;-61
2023/05/25 08:39:10;;;;;;;8.40;3.00;;;;;;;24.59;55.88;99272.98;79724;1291;3013156;-61
2023/05/25 08:41:40;;;;;;;9.50;4.20;;;;;;;24.62;53.93;99269.80;79576;1294;3011449;-61
2023/05/25 08:44:13;;;;;;;11.60;3.20;;;;;;;24.55;53.38;99274.81;78562;1294;3050933;-62
2023/05/25 08:46:40;;;;;;;;;;;;;;;24.49;53.70;99272.48;79582;1291;3011673;-62
2023/05/25 08:49:09;;;;;;;7.50;3.50;;;;;;;24.51;54.43;99272.01;78430;1293;3052836;-63
2023/05/25 08:51:49;;;;;;;9.80;3.20;;;;;;;24.67;54.59;99273.34;79823;1291;3013012;-62
2023/05/25 08:54:25;;;;;;;7.90;3.20;;;;;;;24.85;53.04;99271.29;78502;1295;3052020;-62
2023/05/25 08:56:58;;;;;;;4.90;2.90;;;;;;;24.89;52.46;99264.21;79073;1291;3011655;-60
2023/05/25 08:59:30;;;;;;;7.90;3.40;;;;;;;25.16;52.18;99261.58;79453;1292;3011669;-60
2023/05/25 09:02:06;;;;;;;7.40;3.20;;;;;;;25.28;52.08;99258.35;78360;1294;3049277;-61
2023/05/25 09:04:34;;;;;;;7.20;3.40;;;;;;;25.33;52.34;99253.10;78410;1292;3052753;-61
2023/05/25 09:07:01;;;;;;;6.30;2.70;;;;;;;25.41;52.25;99260.63;79559;1297;3012980;-62
2023/05/25 09:09:28;;;;;;;7.80;3.30;;;;;;;25.47;51.37;99262.91;79483;1297;3013644;-62
2023/05/25 09:11:56;;;;;;;5.70;3.00;;;;;;;25.51;49.76;99262.36;78453;1293;3026612;-60
2023/05/25 09:14:23;;;;;;;10.10;3.00;;;;;;;25.61;50.47;99258.91;79580;1292;3013846;-63
2023/05/25 09:16:49;;;;;;;6.40;3.20;;;;;;;25.71;51.24;99255.02;79910;1293;3013639;-61
2023/05/25 09:19:17;;;;;;;7.30;3.10;;;;;;;25.73;51.77;99254.45;78326;1295;3028384;-60
2023/05/25 09:21:44;;;;;;;7.10;2.80;;;;;;;25.82;51.64;99256.15;79653;1294;3020617;-60
2023/05/25 09:24:10;;;;;;;8.70;3.10;;;;;;;25.96;52.03;99253.84;79593;1293;3011604;-60
2023/05/25 09:26:38;;;;;;;6.90;2.80;;;;;;;26.05;51.04;99253.54;78411;1293;3029215;-60
2023/05/25 09:29:05;;;;;;;8.10;3.00;;;;;;;26.06;49.70;99251.02;79734;1292;3013394;-60
2023/05/25 09:31:33;;;;;;;7.20;3.10;;;;;;;26.07;49.51;99250.90;79836;1291;3011991;-62
2023/05/25 09:34:01;;;;;;;10.40;3.50;;;;;;;26.19;49.19;99250.46;78296;1294;3053537;-63
2023/05/25 09:36:28;;;;;;;9.20;2.70;;;;;;;26.33;49.47;99254.29;79621;1292;3012903;-62
2023/05/25 09:38:55;;;;;;;5.20;2.80;;;;;;;26.35;50.00;99253.61;79655;1294;3011856;-61
2023/05/25 09:41:26;;;;;;;4.20;2.60;;;;;;;26.46;50.30;99255.26;78602;1291;3026461;-61
2023/05/25 09:43:53;;;;;;;6.50;2.70;;;;;;;26.52;48.67;99254.29;79746;1291;3011720;-61
2023/05/25 09:46:22;;;;;;;7.00;2.70;;;;;;;26.58;47.80;99252.93;79075;1292;3011697;-62
2023/05/25 09:48:50;;;;;;;12.00;3.60;;;;;;;26.73;47.58;99252.41;79606;1292;3012941;-61
2023/05/25 09:51:16;;;;;;;6.20;3.20;;;;;;;26.83;47.37;99241.34;79584;1291;3011860;-61
2023/05/25 09:53:46;;;;;;;8.20;3.00;;;;;;;26.89;48.50;99229.27;78444;1294;3052950;-63
2023/05/25 09:56:13;;;;;;;4.80;2.50;;;;;;;26.92;49.27;99230.36;79732;1294;3012902;-62
2023/05/25 09:58:40;;;;;;;6.80;2.80;;;;;;;26.94;48.18;99237.41;79647;1292;3013407;-61
2023/05/25 10:01:08;;;;;;;5.80;2.60;;;;;;;26.96;47.33;99241.34;78329;1294;3056333;-62
2023/05/25 10:03:35;;;;;;;10.30;3.30;;;;;;;26.94;47.46;99249.48;79663;1292;3012927;-60
2023/05/25 10:06:02;;;;;;;5.80;2.90;;;;;;;26.89;47.60;99250.38;79617;1292;3013675;-61
2023/05/25 10:08:30;;;;;;;8.00;3.20;;;;;;;26.82;47.98;99246.05;78289;1297;3028958;-61
2023/05/25 10:10:57;;;;;;;6.40;2.90;;;;;;;26.69;49.29;99243.55;79796;1294;3018660;-59
2023/05/25 10:13:24;;;;;;;7.40;2.90;;;;;;;26.46;49.80;99239.66;79631;1293;3011714;-60
2023/05/25 10:15:53;;;;;;;12.10;3.50;;;;;;;26.30;50.57;99242.02;79419;1292;3056808;-61
2023/05/25 10:18:24;;;;;;;5.70;2.80;;;;;;;26.17;51.09;99239.19;79604;1292;3013686;-58
2023/05/25 10:20:56;;;;;;;7.70;3.30;;;;;;;26.12;51.42;99233.66;78536;1295;3049759;-62
2023/05/25 10:23:22;;;;;;;8.90;3.00;;;;;;;25.94;51.85;99230.91;79668;1291;3011705;-62
2023/05/25 10:25:53;;;;;;;9.00;3.20;;;;;;;25.78;52.47;99235.48;78399;1292;3026738;-61
2023/05/25 10:28:30;;;;;;;5.90;2.80;;;;;;;25.55;52.84;99236.98;79715;1292;3013191;-62
2023/05/25 10:30:58;;;;;;;13.80;2.80;;;;;;;25.12;54.29;99247.54;78537;1293;3051642;-62
2023/05/25 10:33:24;;;;;;;12.40;3.40;;;;;;;24.38;57.32;99253.63;79610;1292;3021155;-61
2023/05/25 10:35:51;;;;;;;12.80;3.90;;;;;;;23.53;62.94;99253.36;79708;1291;3011870;-62
2023/05/25 10:38:19;;;;;;;10.90;3.60;;;;;;;22.55;68.04;99259.29;78461;1295;3028272;-62
2023/05/25 10:40:47;;;;;;;7.30;3.50;;;;;;;21.43;69.79;99263.02;79566;1295;3015237;-63
2023/05/25 10:43:14;;;;;;;10.80;3.50;;;;;;;20.51;73.73;99263.62;79740;1293;3011517;-61
2023/05/25 10:45:41;;;;;;;11.00;3.40;;;;;;;20.23;73.47;99265.34;78685;1293;3025568;-61
2023/05/25 10:48:08;;;;;;;7.40;3.60;;;;;;;20.06;73.63;99263.37;79702;1291;3013268;-61
2023/05/25 10:50:35;;;;;;;9.30;3.40;;;;;;;20.49;72.65;99261.36;79594;1291;3011806;-60
2023/05/25 10:53:12;;;;;;;9.80;4.00;;;;;;;20.64;71.57;99254.61;78601;1295;3025873;-61
2023/05/25 10:59:28;;;;;;;8.80;3.40;;;;;;;20.75;69.49;99242.45;78821;1292;3052036;-61
2023/05/25 11:01:55;;;;;;;6.00;2.90;;;;;;;20.78;69.38;99236.77;79699;1292;3012942;-63
2023/05/25 11:04:24;;;;;;;7.40;2.70;;;;;;;20.80;70.61;99230.44;79245;1291;3011646;-60
2023/05/25 11:06:50;;;;;;;7.40;3.20;;;;;;;20.85;69.55;99229.34;79735;1292;3011845;-60
2023/05/25 11:09:24;;;;;;;9.40;2.90;;;;;;;20.91;71.97;99225.12;79615;1294;3012945;-61
2023/05/25 11:11:54;;;;;;;7.50;3.40;;;;;;;21.43;71.66;99223.55;78433;1294;3050266;-62
2023/05/25 11:14:30;;;;;;;8.20;2.60;;;;;;;22.14;68.57;99222.52;79670;1295;3011772;-61
2023/05/25 11:17:12;;;;;;;6.60;2.80;;;;;;;22.20;68.07;99225.60;78409;1292;3052602;-62
2023/05/25 11:19:40;;;;;;;;;;;;;;;21.97;66.00;99231.40;78525;1295;3069361;-61
2023/05/25 11:22:14;;;;;;;6.40;3.00;;;;;;;21.79;67.42;99243.36;79713;1292;3012879;-61
2023/05/25 11:24:44;;;;;;;8.90;3.40;;;;;;;21.69;68.10;99255.14;78411;1292;3049632;-61
2023/05/25 11:27:10;;;;;;;8.60;3.60;;;;;;;21.55;69.18;99270.45;79772;1292;3014043;-61
2023/05/25 11:29:38;;;;;;;7.30;3.20;;;;;;;21.51;68.95;99281.17;79674;1292;3013263;-62